Time;durP1;ratioP1;P1;durP2;ratioP2;P2;SDS_P1;SDS_P2;PMS_P1;PMS_P2;Temp;Humidity;BMP_temperature;BMP_pressure;BME280_temperature;BME280_humidity;BME280_pressure;Samples;Min_cycle;Max_cycle;Signal;HPM_P1;HPM_P2
2022/12/20 00:01:11;;;;;;;0.03;0.03;;;9.10;90.70;;;;;;4950945;29;20489;-64
2022/12/20 00:03:37;;;;;;;0.00;0.00;;;9.10;90.70;;;;;;4950486;29;20058;-64
2022/12/20 00:06:03;;;;;;;0.00;0.00;;;9.00;90.70;;;;;;4951539;29;20074;-65
2022/12/20 00:08:28;;;;;;;0.00;0.00;;;9.00;90.70;;;;;;4951298;28;20078;-65
2022/12/20 00:10:54;;;;;;;0.28;0.28;;;9.00;90.80;;;;;;4950455;28;20098;-64
2022/12/20 00:13:19;;;;;;;0.00;0.00;;;9.00;90.80;;;;;;4951619;29;20047;-64
2022/12/20 00:15:45;;;;;;;0.00;0.00;;;9.00;90.70;;;;;;4951311;29;20055;-65
2022/12/20 00:18:11;;;;;;;0.00;0.00;;;9.00;90.70;;;;;;4951169;29;20452;-65
2022/12/20 00:20:36;;;;;;;0.10;0.10;;;9.00;90.70;;;;;;4950660;29;20051;-65
2022/12/20 00:23:02;;;;;;;0.00;0.00;;;9.00;90.60;;;;;;4951053;29;20097;-64
2022/12/20 00:25:28;;;;;;;0.00;0.00;;;9.00;90.50;;;;;;4950631;29;20071;-64
2022/12/20 00:27:53;;;;;;;0.08;0.08;;;9.00;90.60;;;;;;4951360;29;20504;-65
2022/12/20 00:30:19;;;;;;;0.00;0.00;;;8.90;90.50;;;;;;4950375;28;20058;-65
2022/12/20 00:32:45;;;;;;;0.00;0.00;;;8.90;90.50;;;;;;4951340;29;20493;-65
2022/12/20 00:35:11;;;;;;;0.10;0.10;;;8.80;90.50;;;;;;4950540;29;20043;-65
2022/12/20 00:37:37;;;;;;;0.75;0.75;;;8.90;90.50;;;;;;4950989;29;20062;-65
2022/12/20 00:40:05;;;;;;;0.00;0.00;;;8.80;90.50;;;;;;4951268;28;20051;-65
2022/12/20 00:42:30;;;;;;;0.00;0.00;;;8.80;90.60;;;;;;4951075;29;20074;-65
2022/12/20 00:44:56;;;;;;;0.00;0.00;;;8.80;90.60;;;;;;4950400;29;20071;-65
2022/12/20 00:47:22;;;;;;;0.20;0.20;;;8.80;90.60;;;;;;4951276;29;20050;-65
2022/12/20 00:49:47;;;;;;;0.00;0.00;;;8.80;90.60;;;;;;4950865;28;20500;-64
2022/12/20 00:52:13;;;;;;;0.00;0.00;;;8.70;90.60;;;;;;4951059;29;20580;-64
2022/12/20 00:54:39;;;;;;;0.00;0.00;;;8.70;90.60;;;;;;4950310;29;20475;-64
2022/12/20 00:57:04;;;;;;;0.10;0.10;;;8.70;90.60;;;;;;4950800;29;20097;-65
2022/12/20 00:59:31;;;;;;;0.00;0.00;;;8.70;90.60;;;;;;4950082;29;20558;-64
2022/12/20 01:01:57;;;;;;;0.00;0.00;;;8.70;90.70;;;;;;4950702;29;20043;-64
2022/12/20 01:04:23;;;;;;;0.00;0.00;;;8.70;90.60;;;;;;4949656;29;20059;-65
2022/12/20 01:06:48;;;;;;;0.20;0.20;;;8.70;90.60;;;;;;4950923;29;20046;-64
2022/12/20 01:09:14;;;;;;;0.00;0.00;;;8.80;90.50;;;;;;4950573;29;20058;-65
2022/12/20 01:11:39;;;;;;;0.00;0.00;;;8.70;90.50;;;;;;4950373;28;20519;-64
2022/12/20 01:14:09;;;;;;;0.17;0.17;;;8.70;90.50;;;;;;4950932;29;20054;-64
2022/12/20 01:16:38;;;;;;;0.00;0.00;;;8.80;90.60;;;;;;4949952;28;20511;-65
2022/12/20 01:19:04;;;;;;;0.00;0.00;;;8.70;90.40;;;;;;4951187;28;20043;-65
2022/12/20 01:21:30;;;;;;;0.00;0.00;;;8.70;90.40;;;;;;4951266;28;20047;-64
2022/12/20 01:23:56;;;;;;;0.03;0.03;;;8.70;90.40;;;;;;4954611;29;20416;-64
2022/12/20 01:26:24;;;;;;;0.05;0.05;;;8.70;90.40;;;;;;4953644;28;20043;-65
2022/12/20 01:28:56;;;;;;;0.00;0.00;;;8.70;90.20;;;;;;4945987;28;20040;-65
2022/12/20 01:31:22;;;;;;;0.03;0.03;;;8.70;90.30;;;;;;4953654;29;20063;-64
2022/12/20 01:33:51;;;;;;;0.00;0.00;;;8.70;90.20;;;;;;4953911;28;20421;-65
2022/12/20 01:36:19;;;;;;;0.10;0.10;;;8.70;90.20;;;;;;4952187;29;20051;-65
2022/12/20 01:38:45;;;;;;;0.00;0.00;;;8.70;90.10;;;;;;4953768;28;20066;-65
2022/12/20 01:41:17;;;;;;;0.00;0.00;;;8.70;90.20;;;;;;4954311;29;20043;-65
2022/12/20 01:43:54;;;;;;;0.00;0.00;;;8.70;90.20;;;;;;4954367;29;20054;-65
2022/12/20 01:46:21;;;;;;;0.03;0.03;;;8.70;90.20;;;;;;4953604;28;20244;-64
2022/12/20 01:49:03;;;;;;;0.00;0.00;;;8.70;90.10;;;;;;4953771;29;20039;-64
2022/12/20 01:51:33;;;;;;;0.10;0.10;;;8.70;90.20;;;;;;4953424;29;20481;-65
2022/12/20 01:54:12;;;;;;;0.22;0.22;;;8.70;90.10;;;;;;4954015;29;20101;-65
2022/12/20 01:56:39;;;;;;;0.00;0.00;;;8.70;90.10;;;;;;4953438;28;20127;-65
2022/12/20 01:59:06;;;;;;;0.00;0.00;;;8.70;90.00;;;;;;4953407;29;20063;-64
2022/12/20 02:01:33;;;;;;;0.20;0.20;;;8.70;90.10;;;;;;4954272;28;20519;-65
2022/12/20 02:03:58;;;;;;;0.00;0.00;;;8.70;90.00;;;;;;4954872;28;20082;-65
2022/12/20 02:06:26;;;;;;;0.00;0.00;;;8.80;90.10;;;;;;4954167;29;20055;-65
2022/12/20 02:08:55;;;;;;;1.98;0.85;;;8.70;90.10;;;;;;4953827;29;20113;-65
2022/12/20 02:11:30;;;;;;;0.00;0.00;;;8.80;90.10;;;;;;4954498;29;20050;-64
2022/12/20 02:14:11;;;;;;;0.13;0.13;;;8.80;90.10;;;;;;4954247;28;20035;-65
2022/12/20 02:16:49;;;;;;;0.00;0.00;;;8.80;90.10;;;;;;4954859;28;20059;-65
2022/12/20 02:19:42;;;;;;;0.00;0.00;;;8.80;90.20;;;;;;4954187;29;20047;-65
2022/12/20 02:22:15;;;;;;;0.00;0.00;;;8.90;90.20;;;;;;4954043;29;20605;-65
2022/12/20 02:25:14;;;;;;;0.10;0.10;;;8.90;90.30;;;;;;4953811;29;20039;-65
2022/12/20 02:27:48;;;;;;;0.00;0.00;;;8.90;90.30;;;;;;4953875;29;20071;-65
2022/12/20 02:30:20;;;;;;;0.00;0.00;;;8.90;90.40;;;;;;4954188;28;20516;-65
2022/12/20 02:32:54;;;;;;;0.00;0.00;;;8.90;90.40;;;;;;4953334;28;20036;-64
2022/12/20 02:35:24;;;;;;;0.10;0.10;;;8.90;90.50;;;;;;4952242;29;20420;-65
2022/12/20 02:37:58;;;;;;;0.00;0.00;;;8.90;90.60;;;;;;4953664;29;20126;-65
2022/12/20 02:40:33;;;;;;;0.20;0.20;;;8.80;90.70;;;;;;4954206;29;20078;-65
2022/12/20 02:43:03;;;;;;;0.00;0.00;;;8.90;90.80;;;;;;4953606;29;20035;-65
2022/12/20 02:45:33;;;;;;;0.00;0.00;;;8.80;90.90;;;;;;4953486;28;20051;-65
2022/12/20 02:48:06;;;;;;;0.00;0.00;;;8.80;91.00;;;;;;4953727;29;20047;-64
2022/12/20 02:50:50;;;;;;;0.00;0.00;;;8.70;91.10;;;;;;4952762;28;20122;-63
2022/12/20 02:53:16;;;;;;;0.00;0.00;;;8.70;91.10;;;;;;4954085;28;20122;-65
2022/12/20 02:55:47;;;;;;;0.00;0.00;;;8.80;91.30;;;;;;4953540;28;20627;-65
2022/12/20 02:58:42;;;;;;;0.00;0.00;;;8.70;91.50;;;;;;4953468;29;20530;-65
2022/12/20 03:01:13;;;;;;;0.00;0.00;;;8.70;91.50;;;;;;4953916;29;20048;-65
2022/12/20 03:03:39;;;;;;;0.00;0.00;;;8.70;91.60;;;;;;4953791;28;20051;-65
2022/12/20 03:06:05;;;;;;;0.00;0.00;;;8.70;91.60;;;;;;4952460;29;20043;-64
2022/12/20 03:08:30;;;;;;;0.00;0.00;;;8.70;91.80;;;;;;4952136;28;20048;-65
2022/12/20 03:10:56;;;;;;;0.00;0.00;;;8.80;91.90;;;;;;4953313;29;20134;-65
2022/12/20 03:13:24;;;;;;;0.00;0.00;;;8.80;91.90;;;;;;4953456;28;20047;-65
2022/12/20 03:15:49;;;;;;;0.00;0.00;;;8.80;92.10;;;;;;4935748;29;20396;-64
2022/12/20 03:18:15;;;;;;;0.00;0.00;;;8.80;92.10;;;;;;4952773;29;20043;-65
2022/12/20 03:20:41;;;;;;;0.00;0.00;;;8.80;92.20;;;;;;4953326;29;20043;-65
2022/12/20 03:23:07;;;;;;;0.00;0.00;;;8.80;92.30;;;;;;4953420;29;20047;-65
2022/12/20 03:25:32;;;;;;;0.00;0.00;;;8.70;92.40;;;;;;4951134;28;20070;-65
2022/12/20 03:27:58;;;;;;;0.00;0.00;;;8.80;92.40;;;;;;4936096;29;20083;-65
2022/12/20 03:30:23;;;;;;;0.00;0.00;;;8.70;92.40;;;;;;4952988;29;20068;-65
2022/12/20 03:32:49;;;;;;;0.03;0.03;;;8.80;92.50;;;;;;4952547;29;20128;-64
2022/12/20 03:35:15;;;;;;;0.00;0.00;;;8.70;92.60;;;;;;4935277;29;20063;-65
2022/12/20 03:37:41;;;;;;;0.38;0.38;;;8.80;92.60;;;;;;4934868;29;20043;-65
2022/12/20 03:40:07;;;;;;;0.10;0.10;;;8.80;92.50;;;;;;4952065;28;20054;-65
2022/12/20 03:42:33;;;;;;;0.00;0.00;;;8.70;92.60;;;;;;4950741;29;20098;-64
2022/12/20 03:44:59;;;;;;;0.00;0.00;;;8.80;92.70;;;;;;4951027;28;20042;-64
2022/12/20 03:47:25;;;;;;;1.65;1.55;;;8.80;92.70;;;;;;4951397;29;20035;-65
2022/12/20 03:49:51;;;;;;;0.20;0.20;;;8.80;92.70;;;;;;4951718;29;20051;-64
2022/12/20 03:52:16;;;;;;;0.00;0.00;;;8.80;92.70;;;;;;4951875;29;20047;-65
2022/12/20 03:54:42;;;;;;;0.00;0.00;;;8.80;92.60;;;;;;4951854;29;20047;-65
2022/12/20 03:57:08;;;;;;;0.00;0.00;;;8.90;92.70;;;;;;4952623;28;20145;-65
2022/12/20 03:59:34;;;;;;;0.13;0.13;;;8.90;92.80;;;;;;4951740;28;20043;-65
2022/12/20 04:02:00;;;;;;;0.08;0.08;;;8.90;92.80;;;;;;4951329;29;20101;-65
2022/12/20 04:04:26;;;;;;;0.00;0.00;;;8.90;92.80;;;;;;4950975;28;20567;-66
2022/12/20 04:06:51;;;;;;;0.00;0.00;;;8.90;92.70;;;;;;4934141;29;20051;-65
2022/12/20 04:09:17;;;;;;;0.30;0.30;;;8.90;92.70;;;;;;4951844;29;20144;-65
2022/12/20 04:11:42;;;;;;;0.52;0.52;;;8.90;92.90;;;;;;4934051;28;20133;-65
2022/12/20 04:14:08;;;;;;;0.00;0.00;;;8.90;92.90;;;;;;4934180;29;20073;-65
2022/12/20 04:16:34;;;;;;;0.00;0.00;;;8.90;92.90;;;;;;4950467;29;20043;-64
2022/12/20 04:18:59;;;;;;;0.00;0.00;;;8.90;93.00;;;;;;4951331;29;20043;-65
2022/12/20 04:21:28;;;;;;;0.00;0.00;;;8.90;93.00;;;;;;4951540;29;20035;-65
2022/12/20 04:23:55;;;;;;;0.10;0.10;;;8.90;93.10;;;;;;4951187;29;20094;-64
2022/12/20 04:26:21;;;;;;;0.10;0.10;;;8.90;93.20;;;;;;4949460;29;20043;-65
2022/12/20 04:28:46;;;;;;;0.00;0.00;;;8.90;93.10;;;;;;4950805;28;20059;-64
2022/12/20 04:31:12;;;;;;;0.00;0.00;;;8.90;93.10;;;;;;4950804;29;20121;-65
2022/12/20 04:33:38;;;;;;;0.00;0.00;;;8.90;93.10;;;;;;4949897;29;20066;-65
2022/12/20 04:36:05;;;;;;;0.10;0.10;;;9.00;93.20;;;;;;4950337;29;20413;-65
2022/12/20 04:38:31;;;;;;;0.65;0.65;;;8.90;93.20;;;;;;4950308;29;20423;-65
2022/12/20 04:40:56;;;;;;;0.05;0.05;;;8.90;93.20;;;;;;4950907;28;20196;-64
2022/12/20 04:43:23;;;;;;;0.00;0.00;;;8.90;93.20;;;;;;4951205;29;20062;-65
2022/12/20 04:45:51;;;;;;;0.00;0.00;;;8.90;93.30;;;;;;4951040;29;20073;-65
2022/12/20 04:48:18;;;;;;;0.15;0.15;;;8.90;93.20;;;;;;4950898;29;20094;-65
2022/12/20 04:50:47;;;;;;;0.00;0.00;;;9.00;93.20;;;;;;4950719;29;20456;-65
2022/12/20 04:55:57;;;;;;;0.00;0.00;;;9.00;93.20;;;;;;4950311;29;20456;-65
2022/12/20 04:58:23;;;;;;;0.00;0.00;;;9.00;93.20;;;;;;4949437;29;20134;-65
2022/12/20 05:00:51;;;;;;;0.00;0.00;;;9.00;93.20;;;;;;4949212;29;20039;-65
2022/12/20 05:03:17;;;;;;;0.00;0.00;;;9.00;93.20;;;;;;4950778;28;20504;-65
2022/12/20 05:05:42;;;;;;;0.00;0.00;;;9.10;93.20;;;;;;4933463;29;20055;-64
2022/12/20 05:08:08;;;;;;;0.00;0.00;;;9.10;93.20;;;;;;4951282;29;20070;-65
2022/12/20 05:10:34;;;;;;;0.00;0.00;;;9.10;93.20;;;;;;4950019;28;20039;-65
2022/12/20 05:12:59;;;;;;;0.00;0.00;;;9.00;93.20;;;;;;4948844;29;20488;-65
2022/12/20 05:15:25;;;;;;;0.00;0.00;;;9.10;93.10;;;;;;4951031;29;20055;-65
2022/12/20 05:17:50;;;;;;;0.10;0.10;;;9.10;93.10;;;;;;4950981;29;20051;-64
2022/12/20 05:20:16;;;;;;;0.00;0.00;;;9.10;93.10;;;;;;4950812;29;20110;-65
2022/12/20 05:28:10;;;;;;;0.00;0.00;;;9.20;92.90;;;;;;4949925;29;20044;-65
2022/12/20 05:30:36;;;;;;;0.00;0.00;;;9.20;92.80;;;;;;4949259;28;20555;-65
2022/12/20 05:33:01;;;;;;;0.00;0.00;;;9.20;92.80;;;;;;4949708;29;20523;-64
2022/12/20 05:35:27;;;;;;;1.42;1.33;;;9.20;92.70;;;;;;4941317;29;20440;-65
2022/12/20 05:37:52;;;;;;;0.00;0.00;;;9.20;92.70;;;;;;4932101;29;20051;-66
2022/12/20 05:40:18;;;;;;;0.00;0.00;;;9.20;92.70;;;;;;4949560;29;20839;-66
2022/12/20 05:42:43;;;;;;;0.00;0.00;;;9.20;92.70;;;;;;4951051;29;20054;-70
2022/12/20 05:45:10;;;;;;;0.00;0.00;;;9.20;92.70;;;;;;4950305;29;20130;-65
2022/12/20 05:47:35;;;;;;;0.00;0.00;;;9.20;92.60;;;;;;4951097;28;20051;-64
2022/12/20 05:50:02;;;;;;;0.00;0.00;;;9.20;92.60;;;;;;4953212;28;20478;-65
2022/12/20 05:52:27;;;;;;;0.00;0.00;;;9.20;92.60;;;;;;4950054;28;20050;-65
2022/12/20 05:54:53;;;;;;;0.10;0.10;;;9.20;92.50;;;;;;4948891;29;20051;-65
2022/12/20 05:57:19;;;;;;;0.08;0.08;;;9.20;92.50;;;;;;4942348;28;20134;-65
2022/12/20 05:59:44;;;;;;;0.05;0.05;;;9.30;92.60;;;;;;4940900;28;20488;-64
2022/12/20 06:02:10;;;;;;;0.08;0.08;;;9.30;92.50;;;;;;4949598;29;20481;-65
2022/12/20 06:04:37;;;;;;;0.00;0.00;;;9.40;92.40;;;;;;4949369;28;20484;-64
2022/12/20 06:07:04;;;;;;;0.52;0.52;;;9.30;92.40;;;;;;4948600;28;20047;-65
2022/12/20 06:09:30;;;;;;;0.00;0.00;;;9.30;92.40;;;;;;4952191;28;20086;-65
2022/12/20 06:11:56;;;;;;;0.00;0.00;;;9.30;92.40;;;;;;4951527;28;20044;-65
2022/12/20 06:14:21;;;;;;;0.00;0.00;;;9.30;92.30;;;;;;4951300;29;20047;-65
2022/12/20 06:16:47;;;;;;;0.00;0.00;;;9.30;92.40;;;;;;4953361;29;20054;-65
2022/12/20 06:19:13;;;;;;;0.00;0.00;;;9.30;92.30;;;;;;4951862;29;20134;-65
2022/12/20 06:21:38;;;;;;;0.00;0.00;;;9.40;92.40;;;;;;4952832;28;20054;-65
2022/12/20 06:24:05;;;;;;;0.00;0.00;;;9.30;92.30;;;;;;4953045;28;20043;-65
2022/12/20 06:26:35;;;;;;;0.03;0.03;;;9.40;92.40;;;;;;4951327;28;20039;-65
2022/12/20 06:29:09;;;;;;;0.00;0.00;;;9.40;92.30;;;;;;4952713;28;20126;-66
2022/12/20 06:31:35;;;;;;;0.00;0.00;;;9.40;92.30;;;;;;4952100;28;20066;-65
2022/12/20 06:34:00;;;;;;;0.10;0.10;;;9.40;92.30;;;;;;4952837;28;20735;-64
2022/12/20 06:36:26;;;;;;;0.00;0.00;;;9.40;92.30;;;;;;4950854;29;20051;-65
2022/12/20 06:38:52;;;;;;;0.00;0.00;;;9.40;92.40;;;;;;4952101;29;20047;-65
2022/12/20 06:41:18;;;;;;;0.00;0.00;;;9.40;92.50;;;;;;4959224;28;20087;-66
2022/12/20 06:43:44;;;;;;;0.08;0.08;;;9.40;92.50;;;;;;4960799;28;20040;-65
2022/12/20 06:46:09;;;;;;;0.05;0.05;;;9.40;92.50;;;;;;4953441;28;20118;-65
2022/12/20 06:48:35;;;;;;;0.10;0.10;;;9.40;92.60;;;;;;4952093;29;20039;-65
2022/12/20 06:51:00;;;;;;;0.00;0.00;;;9.40;92.70;;;;;;4951548;28;20063;-66
2022/12/20 06:53:26;;;;;;;0.03;0.03;;;9.40;92.80;;;;;;4951149;28;20700;-65
2022/12/20 06:55:52;;;;;;;0.05;0.05;;;9.40;92.90;;;;;;4952264;28;20055;-66
2022/12/20 06:58:19;;;;;;;0.60;0.60;;;9.40;92.90;;;;;;4935533;29;20055;-63
2022/12/20 07:00:44;;;;;;;0.10;0.10;;;9.40;92.90;;;;;;4950090;29;20524;-65
2022/12/20 07:03:10;;;;;;;0.00;0.00;;;9.40;93.10;;;;;;4947944;29;20138;-67
2022/12/20 07:05:36;;;;;;;0.00;0.00;;;9.30;93.20;;;;;;4951697;28;20045;-65
2022/12/20 07:08:03;;;;;;;0.00;0.00;;;9.40;93.20;;;;;;4952082;28;20397;-65
2022/12/20 07:10:34;;;;;;;0.00;0.00;;;9.30;93.30;;;;;;4951020;29;20121;-65
2022/12/20 07:12:59;;;;;;;0.00;0.00;;;9.30;93.30;;;;;;4950833;28;20082;-65
2022/12/20 07:15:25;;;;;;;0.10;0.10;;;9.30;93.50;;;;;;4952304;28;20042;-65
2022/12/20 07:17:50;;;;;;;0.00;0.00;;;9.30;93.50;;;;;;4959379;28;20051;-65
2022/12/20 07:20:17;;;;;;;0.00;0.00;;;9.30;93.50;;;;;;4951848;28;20043;-69
2022/12/20 07:22:42;;;;;;;0.00;0.00;;;9.30;93.60;;;;;;4950915;28;20082;-66
2022/12/20 07:25:09;;;;;;;0.00;0.00;;;9.30;93.70;;;;;;4950721;28;20074;-66
2022/12/20 07:27:35;;;;;;;0.17;0.17;;;9.30;93.60;;;;;;4951461;28;20043;-67
2022/12/20 07:30:01;;;;;;;0.10;0.10;;;9.30;93.70;;;;;;4951723;29;20063;-66
2022/12/20 07:32:27;;;;;;;0.00;0.00;;;9.30;93.70;;;;;;4953044;29;20134;-66
2022/12/20 07:34:52;;;;;;;0.10;0.10;;;9.30;93.80;;;;;;4952326;28;20051;-66
2022/12/20 07:37:18;;;;;;;0.03;0.03;;;9.30;93.80;;;;;;4952162;28;20077;-66
2022/12/20 07:39:43;;;;;;;0.00;0.00;;;9.30;93.90;;;;;;4951970;29;20043;-66
2022/12/20 07:42:10;;;;;;;0.10;0.10;;;9.30;93.90;;;;;;4952021;29;20464;-67
2022/12/20 07:44:36;;;;;;;0.10;0.10;;;9.30;93.80;;;;;;4951996;29;20039;-66
2022/12/20 07:47:01;;;;;;;0.00;0.00;;;9.30;93.90;;;;;;4951215;29;20070;-66
2022/12/20 07:49:27;;;;;;;0.00;0.00;;;9.30;94.00;;;;;;4950539;29;20043;-66
2022/12/20 07:51:57;;;;;;;1.30;1.25;;;9.30;93.90;;;;;;4950450;29;20049;-66
2022/12/20 07:54:30;;;;;;;0.00;0.00;;;9.30;93.90;;;;;;4952064;28;20489;-67
2022/12/20 07:57:03;;;;;;;0.00;0.00;;;9.40;94.00;;;;;;4951669;28;20408;-66
2022/12/20 07:59:40;;;;;;;0.00;0.00;;;9.40;94.00;;;;;;4951702;28;20404;-67
2022/12/20 08:02:10;;;;;;;0.05;0.05;;;9.40;94.00;;;;;;4951877;28;20381;-66
2022/12/20 08:04:37;;;;;;;0.00;0.00;;;9.40;93.90;;;;;;4951840;28;20092;-66
2022/12/20 08:07:03;;;;;;;0.00;0.00;;;9.40;93.90;;;;;;4952087;28;20039;-66
2022/12/20 08:09:33;;;;;;;0.00;0.00;;;9.50;94.00;;;;;;4951667;28;20047;-66
2022/12/20 08:11:59;;;;;;;0.00;0.00;;;9.40;93.90;;;;;;4951273;28;20071;-66
2022/12/20 08:14:25;;;;;;;0.10;0.10;;;9.50;93.80;;;;;;4951382;28;20106;-66
2022/12/20 08:16:51;;;;;;;0.98;0.98;;;9.50;93.80;;;;;;4951466;28;20039;-65
2022/12/20 08:19:17;;;;;;;0.10;0.10;;;9.50;93.70;;;;;;4951594;28;20041;-66
2022/12/20 08:21:42;;;;;;;0.20;0.20;;;9.50;93.70;;;;;;4949255;29;20114;-67
2022/12/20 08:24:08;;;;;;;0.00;0.00;;;9.50;93.70;;;;;;4949459;29;20408;-65
2022/12/20 08:26:40;;;;;;;0.00;0.00;;;9.50;93.50;;;;;;4950738;28;20577;-67
2022/12/20 08:29:07;;;;;;;0.00;0.00;;;9.50;93.50;;;;;;4934506;29;20069;-66
2022/12/20 08:31:37;;;;;;;0.00;0.00;;;9.50;93.50;;;;;;4950178;28;20048;-66
2022/12/20 08:34:03;;;;;;;0.00;0.00;;;9.60;93.50;;;;;;4951707;29;20392;-66
2022/12/20 08:36:28;;;;;;;0.35;0.35;;;9.60;93.40;;;;;;4950941;29;20074;-66
2022/12/20 08:38:54;;;;;;;0.00;0.00;;;9.50;93.30;;;;;;4965602;28;20094;-66
2022/12/20 08:41:20;;;;;;;0.00;0.00;;;9.60;93.20;;;;;;4951766;28;20051;-66
2022/12/20 08:43:45;;;;;;;0.00;0.00;;;9.60;93.20;;;;;;4951147;29;20047;-66
2022/12/20 08:46:11;;;;;;;0.05;0.05;;;9.60;93.10;;;;;;4950920;28;20045;-66
2022/12/20 08:48:37;;;;;;;0.20;0.20;;;9.60;93.00;;;;;;4935559;29;20164;-65
2022/12/20 08:51:09;;;;;;;0.00;0.00;;;9.60;93.00;;;;;;4951400;28;20533;-66
2022/12/20 08:53:35;;;;;;;0.00;0.00;;;9.70;92.80;;;;;;4950947;28;20114;-66
2022/12/20 08:56:06;;;;;;;0.00;0.00;;;9.60;92.80;;;;;;4950949;28;20166;-67
2022/12/20 08:58:32;;;;;;;0.00;0.00;;;9.70;92.70;;;;;;4950733;29;20126;-67
2022/12/20 09:01:01;;;;;;;0.00;0.00;;;9.60;92.60;;;;;;4950506;28;20098;-67
2022/12/20 09:03:30;;;;;;;0.00;0.00;;;9.70;92.60;;;;;;4949577;29;20058;-67
2022/12/20 09:05:57;;;;;;;0.30;0.30;;;9.80;92.60;;;;;;4950513;29;20043;-67
2022/12/20 09:08:22;;;;;;;0.08;0.08;;;9.70;92.40;;;;;;4950463;28;20039;-66
2022/12/20 09:10:48;;;;;;;0.00;0.00;;;9.70;92.30;;;;;;4950243;29;20047;-66
2022/12/20 09:13:14;;;;;;;0.00;0.00;;;9.80;92.20;;;;;;4951154;28;20067;-66
2022/12/20 09:15:41;;;;;;;0.00;0.00;;;9.80;92.10;;;;;;4951454;28;20053;-67
2022/12/20 09:18:06;;;;;;;0.00;0.00;;;9.90;92.00;;;;;;4951391;28;20114;-67
2022/12/20 09:20:32;;;;;;;0.00;0.00;;;9.90;91.90;;;;;;4950687;29;20127;-67
2022/12/20 09:22:58;;;;;;;0.00;0.00;;;9.90;91.80;;;;;;4950638;28;20046;-67
2022/12/20 09:25:25;;;;;;;0.90;0.82;;;9.90;91.60;;;;;;4950757;29;20061;-66
2022/12/20 09:27:51;;;;;;;0.00;0.00;;;9.90;91.50;;;;;;4933231;28;20048;-66
2022/12/20 09:30:17;;;;;;;0.00;0.00;;;9.90;91.40;;;;;;4931569;29;20465;-66
2022/12/20 09:32:42;;;;;;;0.00;0.00;;;9.90;91.30;;;;;;4943609;29;20126;-66
2022/12/20 09:35:08;;;;;;;0.00;0.00;;;9.90;91.40;;;;;;4950797;29;20054;-67
2022/12/20 09:37:34;;;;;;;0.20;0.20;;;9.90;91.20;;;;;;4950186;29;20126;-66
2022/12/20 09:39:59;;;;;;;0.00;0.00;;;9.90;91.10;;;;;;4950308;29;20043;-66
2022/12/20 09:42:27;;;;;;;0.00;0.00;;;10.00;91.10;;;;;;4951750;28;20052;-66
2022/12/20 09:45:04;;;;;;;0.00;0.00;;;9.90;91.10;;;;;;4954554;28;20130;-66
2022/12/20 09:47:32;;;;;;;0.00;0.00;;;10.00;91.20;;;;;;4952855;29;20039;-66
2022/12/20 09:49:58;;;;;;;0.00;0.00;;;10.00;91.20;;;;;;4954561;28;20043;-67
2022/12/20 09:52:37;;;;;;;0.10;0.10;;;10.10;91.10;;;;;;4953032;29;20130;-66
2022/12/20 09:55:21;;;;;;;0.00;0.00;;;10.00;91.00;;;;;;4953741;28;20043;-66
2022/12/20 09:57:57;;;;;;;0.00;0.00;;;10.10;91.30;;;;;;4953737;29;20170;-66
2022/12/20 10:00:22;;;;;;;0.00;0.00;;;10.10;91.30;;;;;;4954194;28;20053;-66
2022/12/20 10:02:48;;;;;;;0.10;0.10;;;10.10;91.40;;;;;;4953485;28;20039;-66
2022/12/20 10:05:39;;;;;;;0.10;0.10;;;10.10;91.40;;;;;;4954121;29;20541;-66
2022/12/20 10:08:05;;;;;;;0.00;0.00;;;10.10;91.40;;;;;;4953722;28;20460;-67
2022/12/20 10:10:45;;;;;;;0.00;0.00;;;10.10;91.30;;;;;;4953557;28;20043;-67
2022/12/20 10:13:10;;;;;;;0.00;0.00;;;10.10;91.30;;;;;;4953950;29;20058;-66
2022/12/20 10:15:54;;;;;;;0.00;0.00;;;10.10;91.30;;;;;;4952903;29;20130;-66
2022/12/20 10:18:38;;;;;;;0.00;0.00;;;10.20;91.40;;;;;;4953173;29;20126;-66
2022/12/20 10:21:07;;;;;;;0.00;0.00;;;10.10;91.20;;;;;;4945158;29;20043;-67
2022/12/20 10:23:40;;;;;;;0.00;0.00;;;10.20;91.30;;;;;;4953363;29;20047;-66
2022/12/20 10:26:11;;;;;;;0.00;0.00;;;10.20;91.20;;;;;;4953205;29;20086;-67
2022/12/20 10:28:37;;;;;;;2.90;1.65;;;10.20;91.10;;;;;;4953058;28;20047;-67
2022/12/20 10:31:06;;;;;;;0.00;0.00;;;10.20;91.10;;;;;;4953208;28;20110;-66
2022/12/20 10:33:32;;;;;;;0.00;0.00;;;10.20;91.10;;;;;;4953247;28;20058;-67
2022/12/20 10:36:16;;;;;;;0.00;0.00;;;10.20;91.10;;;;;;4952463;28;20066;-66
2022/12/20 10:38:44;;;;;;;0.00;0.00;;;10.20;91.10;;;;;;4949178;29;20036;-67
2022/12/20 10:41:16;;;;;;;0.00;0.00;;;10.20;91.00;;;;;;4949477;29;20047;-66
2022/12/20 10:43:44;;;;;;;0.08;0.08;;;10.20;91.10;;;;;;4941785;28;20492;-66
2022/12/20 10:46:12;;;;;;;0.40;0.40;;;10.20;91.10;;;;;;4934791;29;20094;-67
2022/12/20 10:48:40;;;;;;;0.10;0.10;;;10.20;91.10;;;;;;4953242;28;20118;-66
2022/12/20 10:51:09;;;;;;;0.00;0.00;;;10.20;91.10;;;;;;4952710;29;20416;-67
2022/12/20 10:53:36;;;;;;;0.32;0.32;;;10.20;91.20;;;;;;4934811;28;20062;-66
2022/12/20 10:56:17;;;;;;;0.10;0.10;;;10.10;91.20;;;;;;4953074;29;20081;-67
2022/12/20 10:58:55;;;;;;;0.00;0.00;;;10.20;91.30;;;;;;4951675;29;20047;-67
2022/12/20 11:01:34;;;;;;;0.05;0.05;;;10.10;91.40;;;;;;4951194;29;20043;-66
2022/12/20 11:04:20;;;;;;;0.00;0.00;;;10.10;91.40;;;;;;4946655;29;20050;-67
2022/12/20 11:06:45;;;;;;;0.08;0.08;;;10.20;91.50;;;;;;4949734;29;20044;-67
2022/12/20 11:09:38;;;;;;;0.00;0.00;;;10.30;91.60;;;;;;4951419;29;20034;-67
2022/12/20 11:12:13;;;;;;;;;;;10.40;91.40;;;;;;4934200;29;20043;-67
2022/12/20 11:14:40;;;;;;;0.00;0.00;;;10.50;91.30;;;;;;4933764;29;19934;-66
2022/12/20 11:17:37;;;;;;;0.38;0.38;;;10.50;91.20;;;;;;4933277;29;20601;-67
2022/12/20 11:20:39;;;;;;;0.05;0.05;;;10.50;91.20;;;;;;4933746;29;20062;-68
2022/12/20 11:23:24;;;;;;;;;;;10.50;91.30;;;;;;4944241;29;20098;-67
2022/12/20 11:26:11;;;;;;;0.32;0.32;;;10.50;91.30;;;;;;4952031;28;19977;-67
2022/12/20 11:28:49;;;;;;;0.00;0.00;;;10.50;91.40;;;;;;4952507;28;20047;-67
2022/12/20 11:31:42;;;;;;;0.00;0.00;;;10.50;91.50;;;;;;4953031;28;20059;-67
2022/12/20 11:34:30;;;;;;;0.20;0.20;;;10.50;91.40;;;;;;4952598;29;20483;-67
2022/12/20 11:37:04;;;;;;;0.00;0.00;;;10.50;91.30;;;;;;4952594;29;20098;-67
2022/12/20 11:40:09;;;;;;;0.10;0.10;;;10.50;91.30;;;;;;4950866;29;20519;-67
2022/12/20 11:43:13;;;;;;;0.20;0.20;;;10.50;91.40;;;;;;4950992;29;20052;-66
2022/12/20 11:45:55;;;;;;;0.00;0.00;;;10.50;91.50;;;;;;4952000;28;20039;-67
2022/12/20 11:48:36;;;;;;;0.10;0.10;;;10.40;91.70;;;;;;4952105;28;20070;-67
2022/12/20 11:51:11;;;;;;;0.00;0.00;;;10.40;91.80;;;;;;4951260;28;20071;-66
2022/12/20 11:53:55;;;;;;;0.00;0.00;;;10.40;91.90;;;;;;4942545;29;20492;-67
2022/12/20 11:56:29;;;;;;;0.00;0.00;;;10.30;92.00;;;;;;4951567;29;20089;-66
2022/12/20 11:59:02;;;;;;;0.10;0.10;;;10.30;92.20;;;;;;4932919;29;20051;-66
2022/12/20 12:01:36;;;;;;;0.00;0.00;;;10.30;92.20;;;;;;4932678;29;20051;-66
2022/12/20 12:04:17;;;;;;;0.00;0.00;;;10.40;92.50;;;;;;4951285;28;20050;-67
2022/12/20 12:06:58;;;;;;;0.00;0.00;;;10.30;92.50;;;;;;4950806;28;20043;-67
2022/12/20 12:09:39;;;;;;;0.00;0.00;;;10.30;92.60;;;;;;4950756;29;20448;-66
2022/12/20 12:12:26;;;;;;;0.00;0.00;;;10.20;92.70;;;;;;4950631;29;20044;-66
2022/12/20 12:15:10;;;;;;;0.05;0.05;;;10.30;92.80;;;;;;4951810;28;20059;-66
2022/12/20 12:17:43;;;;;;;0.00;0.00;;;10.20;93.00;;;;;;4959924;28;20043;-66
2022/12/20 12:20:24;;;;;;;0.10;0.10;;;10.30;92.90;;;;;;4934290;29;20057;-66
2022/12/20 12:22:55;;;;;;;0.00;0.00;;;10.30;93.00;;;;;;4951372;28;20062;-66
2022/12/20 12:25:21;;;;;;;14.53;1.60;;;10.20;93.10;;;;;;4951649;28;20051;-65
2022/12/20 12:27:46;;;;;;;0.08;0.08;;;10.20;93.20;;;;;;4951410;29;20047;-66
2022/12/20 12:30:14;;;;;;;0.17;0.17;;;10.20;93.00;;;;;;4951418;29;20039;-67
2022/12/20 12:32:52;;;;;;;0.00;0.00;;;10.20;93.10;;;;;;4950871;28;20043;-66
2022/12/20 12:35:39;;;;;;;0.00;0.00;;;10.20;93.00;;;;;;4951468;29;20043;-66
2022/12/20 12:38:17;;;;;;;0.10;0.10;;;10.20;93.10;;;;;;4951337;29;20047;-66
2022/12/20 12:41:00;;;;;;;0.00;0.00;;;10.20;93.10;;;;;;4951305;28;20047;-66
2022/12/20 12:43:48;;;;;;;0.00;0.00;;;10.20;93.10;;;;;;4951453;28;20130;-67
2022/12/20 12:46:44;;;;;;;0.00;0.00;;;10.20;93.20;;;;;;4951298;28;20127;-66
2022/12/20 12:49:15;;;;;;;0.05;0.05;;;10.20;93.20;;;;;;4950915;28;20527;-66
2022/12/20 12:51:49;;;;;;;0.30;0.30;;;10.30;93.10;;;;;;4951427;29;20061;-65
2022/12/20 12:54:23;;;;;;;0.00;0.00;;;10.20;93.10;;;;;;4951114;29;20043;-66
2022/12/20 12:56:50;;;;;;;0.00;0.00;;;10.30;93.10;;;;;;4951310;29;20050;-66
2022/12/20 12:59:18;;;;;;;0.10;0.10;;;10.20;93.10;;;;;;4951104;29;20082;-66
2022/12/20 13:01:55;;;;;;;0.00;0.00;;;10.20;93.10;;;;;;4950729;29;20054;-66
2022/12/20 13:04:27;;;;;;;0.10;0.10;;;10.20;93.20;;;;;;4951070;29;20440;-66
2022/12/20 13:07:39;;;;;;;0.00;0.00;;;10.20;93.20;;;;;;4950964;29;20058;-66
2022/12/20 13:10:08;;;;;;;0.05;0.05;;;10.10;93.30;;;;;;4950817;28;20509;-66
2022/12/20 13:12:39;;;;;;;0.00;0.00;;;10.20;93.30;;;;;;4950580;29;20047;-66
2022/12/20 13:15:20;;;;;;;0.00;0.00;;;10.20;93.20;;;;;;4950055;29;20581;-66
2022/12/20 13:18:00;;;;;;;0.00;0.00;;;10.10;93.40;;;;;;4938171;29;20472;-66